sensor_id;sensor_type;location;lat;lon;timestamp;temperature;humidity
4406;DHT22;2216;53.806;11.598;2024-03-08T00:00:05;1.80;86.90
4406;DHT22;2216;53.806;11.598;2024-03-08T00:02:41;1.80;87.10
4406;DHT22;2216;53.806;11.598;2024-03-08T00:05:08;1.80;87.10
4406;DHT22;2216;53.806;11.598;2024-03-08T00:07:35;1.70;87.00
4406;DHT22;2216;53.806;11.598;2024-03-08T00:10:02;1.70;87.10
4406;DHT22;2216;53.806;11.598;2024-03-08T00:12:29;1.70;86.90
4406;DHT22;2216;53.806;11.598;2024-03-08T00:14:55;1.70;86.90
4406;DHT22;2216;53.806;11.598;2024-03-08T00:17:21;1.80;86.80
4406;DHT22;2216;53.806;11.598;2024-03-08T00:19:50;1.80;87.20
4406;DHT22;2216;53.806;11.598;2024-03-08T00:22:19;1.70;86.90
4406;DHT22;2216;53.806;11.598;2024-03-08T00:24:45;1.70;86.90
4406;DHT22;2216;53.806;11.598;2024-03-08T00:27:11;1.70;87.00
4406;DHT22;2216;53.806;11.598;2024-03-08T00:29:37;1.70;86.80
4406;DHT22;2216;53.806;11.598;2024-03-08T00:32:06;1.70;86.70
4406;DHT22;2216;53.806;11.598;2024-03-08T00:34:35;1.60;86.60
4406;DHT22;2216;53.806;11.598;2024-03-08T00:37:02;1.60;86.70
4406;DHT22;2216;53.806;11.598;2024-03-08T00:39:29;1.60;86.80
4406;DHT22;2216;53.806;11.598;2024-03-08T00:41:55;1.60;86.60
4406;DHT22;2216;53.806;11.598;2024-03-08T00:44:21;1.60;86.50
4406;DHT22;2216;53.806;11.598;2024-03-08T00:46:46;1.60;86.50
4406;DHT22;2216;53.806;11.598;2024-03-08T00:49:12;1.60;86.40
4406;DHT22;2216;53.806;11.598;2024-03-08T00:51:38;1.50;86.50
4406;DHT22;2216;53.806;11.598;2024-03-08T00:54:04;1.50;86.40
4406;DHT22;2216;53.806;11.598;2024-03-08T00:56:31;1.50;86.40
4406;DHT22;2216;53.806;11.598;2024-03-08T00:58:56;1.50;86.40
4406;DHT22;2216;53.806;11.598;2024-03-08T01:01:22;1.50;86.40
4406;DHT22;2216;53.806;11.598;2024-03-08T01:03:48;1.50;86.30
4406;DHT22;2216;53.806;11.598;2024-03-08T01:06:14;1.50;86.30
4406;DHT22;2216;53.806;11.598;2024-03-08T01:08:40;1.40;86.20
4406;DHT22;2216;53.806;11.598;2024-03-08T01:11:08;1.60;86.30
4406;DHT22;2216;53.806;11.598;2024-03-08T01:13:34;1.40;86.20
4406;DHT22;2216;53.806;11.598;2024-03-08T01:16:01;1.40;86.30
4406;DHT22;2216;53.806;11.598;2024-03-08T01:18:27;1.40;86.30
4406;DHT22;2216;53.806;11.598;2024-03-08T01:20:52;1.40;86.50
4406;DHT22;2216;53.806;11.598;2024-03-08T01:23:18;1.50;86.90
4406;DHT22;2216;53.806;11.598;2024-03-08T01:25:44;1.50;87.10
4406;DHT22;2216;53.806;11.598;2024-03-08T01:28:10;1.50;87.40
4406;DHT22;2216;53.806;11.598;2024-03-08T01:30:35;1.50;87.30
4406;DHT22;2216;53.806;11.598;2024-03-08T01:33:03;1.50;87.30
4406;DHT22;2216;53.806;11.598;2024-03-08T01:35:29;1.60;87.50
4406;DHT22;2216;53.806;11.598;2024-03-08T01:37:55;1.60;87.70
4406;DHT22;2216;53.806;11.598;2024-03-08T01:40:20;1.60;87.60
4406;DHT22;2216;53.806;11.598;2024-03-08T01:42:46;1.60;88.00
4406;DHT22;2216;53.806;11.598;2024-03-08T01:45:13;1.60;87.80
4406;DHT22;2216;53.806;11.598;2024-03-08T01:47:39;1.60;87.90
4406;DHT22;2216;53.806;11.598;2024-03-08T01:50:05;1.60;88.10
4406;DHT22;2216;53.806;11.598;2024-03-08T01:52:32;1.60;88.40
4406;DHT22;2216;53.806;11.598;2024-03-08T01:55:03;1.70;89.00
4406;DHT22;2216;53.806;11.598;2024-03-08T01:57:32;1.70;88.80
4406;DHT22;2216;53.806;11.598;2024-03-08T02:00:02;1.70;89.10
4406;DHT22;2216;53.806;11.598;2024-03-08T02:02:34;1.70;88.90
4406;DHT22;2216;53.806;11.598;2024-03-08T02:05:02;1.70;89.20
4406;DHT22;2216;53.806;11.598;2024-03-08T02:07:28;1.70;89.40
4406;DHT22;2216;53.806;11.598;2024-03-08T02:09:54;1.70;90.00
4406;DHT22;2216;53.806;11.598;2024-03-08T02:12:20;1.60;89.50
4406;DHT22;2216;53.806;11.598;2024-03-08T02:14:46;1.60;89.10
4406;DHT22;2216;53.806;11.598;2024-03-08T02:17:12;1.70;89.10
4406;DHT22;2216;53.806;11.598;2024-03-08T02:19:38;1.70;88.90
4406;DHT22;2216;53.806;11.598;2024-03-08T02:22:05;1.70;88.60
4406;DHT22;2216;53.806;11.598;2024-03-08T02:24:32;1.70;88.60
4406;DHT22;2216;53.806;11.598;2024-03-08T02:26:58;1.70;89.00
4406;DHT22;2216;53.806;11.598;2024-03-08T02:29:24;1.70;89.10
4406;DHT22;2216;53.806;11.598;2024-03-08T02:31:53;1.70;88.80
4406;DHT22;2216;53.806;11.598;2024-03-08T02:34:18;1.70;88.70
4406;DHT22;2216;53.806;11.598;2024-03-08T02:36:45;1.70;88.90
4406;DHT22;2216;53.806;11.598;2024-03-08T02:39:12;1.70;88.80
4406;DHT22;2216;53.806;11.598;2024-03-08T02:41:38;1.70;88.70
4406;DHT22;2216;53.806;11.598;2024-03-08T02:44:04;1.70;88.60
4406;DHT22;2216;53.806;11.598;2024-03-08T02:46:30;1.70;88.40
4406;DHT22;2216;53.806;11.598;2024-03-08T02:48:56;1.70;88.30
4406;DHT22;2216;53.806;11.598;2024-03-08T02:51:22;1.70;88.30
4406;DHT22;2216;53.806;11.598;2024-03-08T02:53:47;1.70;88.40
4406;DHT22;2216;53.806;11.598;2024-03-08T02:56:17;1.80;88.40
4406;DHT22;2216;53.806;11.598;2024-03-08T02:58:43;1.90;88.50
4406;DHT22;2216;53.806;11.598;2024-03-08T03:01:14;1.70;88.40
4406;DHT22;2216;53.806;11.598;2024-03-08T03:03:41;1.70;89.10
4406;DHT22;2216;53.806;11.598;2024-03-08T03:06:07;1.60;89.00
4406;DHT22;2216;53.806;11.598;2024-03-08T03:08:33;1.60;89.30
4406;DHT22;2216;53.806;11.598;2024-03-08T03:10:59;1.60;89.60
4406;DHT22;2216;53.806;11.598;2024-03-08T03:13:24;1.50;89.30
4406;DHT22;2216;53.806;11.598;2024-03-08T03:15:50;1.50;90.20
4406;DHT22;2216;53.806;11.598;2024-03-08T03:18:17;1.50;89.70
4406;DHT22;2216;53.806;11.598;2024-03-08T03:20:46;1.50;89.60
4406;DHT22;2216;53.806;11.598;2024-03-08T03:23:12;1.40;88.90
4406;DHT22;2216;53.806;11.598;2024-03-08T03:25:39;1.40;88.80
4406;DHT22;2216;53.806;11.598;2024-03-08T03:28:07;1.40;88.70
4406;DHT22;2216;53.806;11.598;2024-03-08T03:30:33;1.40;88.70
4406;DHT22;2216;53.806;11.598;2024-03-08T03:33:02;1.40;88.80
4406;DHT22;2216;53.806;11.598;2024-03-08T03:35:32;1.40;88.70
4406;DHT22;2216;53.806;11.598;2024-03-08T03:37:59;1.40;89.00
4406;DHT22;2216;53.806;11.598;2024-03-08T03:40:35;1.30;88.70
4406;DHT22;2216;53.806;11.598;2024-03-08T03:43:05;1.30;88.70
4406;DHT22;2216;53.806;11.598;2024-03-08T03:45:31;1.30;88.70
4406;DHT22;2216;53.806;11.598;2024-03-08T03:48:07;1.30;88.80
4406;DHT22;2216;53.806;11.598;2024-03-08T03:50:35;1.30;89.10
4406;DHT22;2216;53.806;11.598;2024-03-08T03:53:01;1.30;88.90
4406;DHT22;2216;53.806;11.598;2024-03-08T03:55:28;1.30;89.00
4406;DHT22;2216;53.806;11.598;2024-03-08T03:57:54;1.20;89.90
4406;DHT22;2216;53.806;11.598;2024-03-08T04:00:20;1.20;89.10
4406;DHT22;2216;53.806;11.598;2024-03-08T04:02:46;1.20;89.10
4406;DHT22;2216;53.806;11.598;2024-03-08T04:05:14;1.20;89.40
4406;DHT22;2216;53.806;11.598;2024-03-08T04:07:40;1.20;89.30
4406;DHT22;2216;53.806;11.598;2024-03-08T04:10:08;1.10;89.40
4406;DHT22;2216;53.806;11.598;2024-03-08T04:12:34;1.10;89.40
4406;DHT22;2216;53.806;11.598;2024-03-08T04:15:00;1.10;89.50
4406;DHT22;2216;53.806;11.598;2024-03-08T04:17:26;1.10;89.30
4406;DHT22;2216;53.806;11.598;2024-03-08T04:19:52;1.10;89.30
4406;DHT22;2216;53.806;11.598;2024-03-08T04:22:18;1.10;89.30
4406;DHT22;2216;53.806;11.598;2024-03-08T04:24:44;1.10;89.20
4406;DHT22;2216;53.806;11.598;2024-03-08T04:27:11;1.00;89.00
4406;DHT22;2216;53.806;11.598;2024-03-08T04:29:37;1.10;89.10
4406;DHT22;2216;53.806;11.598;2024-03-08T04:32:04;1.10;89.20
4406;DHT22;2216;53.806;11.598;2024-03-08T04:34:32;1.00;89.30
4406;DHT22;2216;53.806;11.598;2024-03-08T04:36:59;1.10;89.50
4406;DHT22;2216;53.806;11.598;2024-03-08T04:39:25;1.00;89.50
4406;DHT22;2216;53.806;11.598;2024-03-08T04:41:58;1.00;89.80
4406;DHT22;2216;53.806;11.598;2024-03-08T04:44:25;1.00;89.80
4406;DHT22;2216;53.806;11.598;2024-03-08T04:46:50;1.00;89.80
4406;DHT22;2216;53.806;11.598;2024-03-08T04:49:16;0.90;89.30
4406;DHT22;2216;53.806;11.598;2024-03-08T04:51:42;0.90;89.10
4406;DHT22;2216;53.806;11.598;2024-03-08T04:54:08;1.00;89.20
4406;DHT22;2216;53.806;11.598;2024-03-08T04:56:35;0.90;89.40
4406;DHT22;2216;53.806;11.598;2024-03-08T04:59:01;0.90;89.30
4406;DHT22;2216;53.806;11.598;2024-03-08T05:01:27;0.90;89.30
4406;DHT22;2216;53.806;11.598;2024-03-08T05:03:52;0.90;89.40
4406;DHT22;2216;53.806;11.598;2024-03-08T05:06:20;0.90;90.00
4406;DHT22;2216;53.806;11.598;2024-03-08T05:08:46;0.90;89.50
4406;DHT22;2216;53.806;11.598;2024-03-08T05:11:12;0.90;89.50
4406;DHT22;2216;53.806;11.598;2024-03-08T05:13:40;0.80;89.50
4406;DHT22;2216;53.806;11.598;2024-03-08T05:16:06;0.90;89.40
4406;DHT22;2216;53.806;11.598;2024-03-08T05:18:33;0.90;89.50
4406;DHT22;2216;53.806;11.598;2024-03-08T05:20:59;0.90;89.30
4406;DHT22;2216;53.806;11.598;2024-03-08T05:23:25;0.90;89.30
4406;DHT22;2216;53.806;11.598;2024-03-08T05:25:51;0.90;89.30
4406;DHT22;2216;53.806;11.598;2024-03-08T05:28:16;0.90;89.50
4406;DHT22;2216;53.806;11.598;2024-03-08T05:30:42;0.90;89.40
4406;DHT22;2216;53.806;11.598;2024-03-08T05:33:08;0.90;90.00
4406;DHT22;2216;53.806;11.598;2024-03-08T05:35:36;0.90;89.40
4406;DHT22;2216;53.806;11.598;2024-03-08T05:38:02;0.90;89.40
4406;DHT22;2216;53.806;11.598;2024-03-08T05:40:28;0.90;89.30
4406;DHT22;2216;53.806;11.598;2024-03-08T05:43:00;0.90;89.50
4406;DHT22;2216;53.806;11.598;2024-03-08T05:45:26;0.90;89.90
4406;DHT22;2216;53.806;11.598;2024-03-08T05:47:52;0.90;89.70
4406;DHT22;2216;53.806;11.598;2024-03-08T05:50:18;0.90;89.80
4406;DHT22;2216;53.806;11.598;2024-03-08T05:52:45;0.90;89.60
4406;DHT22;2216;53.806;11.598;2024-03-08T05:55:11;0.90;89.40
4406;DHT22;2216;53.806;11.598;2024-03-08T05:57:40;0.90;89.40
4406;DHT22;2216;53.806;11.598;2024-03-08T06:00:08;0.90;90.10
4406;DHT22;2216;53.806;11.598;2024-03-08T06:02:40;0.90;89.80
4406;DHT22;2216;53.806;11.598;2024-03-08T06:05:10;0.90;89.90
4406;DHT22;2216;53.806;11.598;2024-03-08T06:07:36;0.90;90.00
4406;DHT22;2216;53.806;11.598;2024-03-08T06:10:11;0.80;90.20
4406;DHT22;2216;53.806;11.598;2024-03-08T06:12:38;0.80;90.20
4406;DHT22;2216;53.806;11.598;2024-03-08T06:15:07;0.80;90.20
4406;DHT22;2216;53.806;11.598;2024-03-08T06:17:40;0.80;90.10
4406;DHT22;2216;53.806;11.598;2024-03-08T06:20:07;0.80;90.20
4406;DHT22;2216;53.806;11.598;2024-03-08T06:22:39;0.80;90.20
4406;DHT22;2216;53.806;11.598;2024-03-08T06:25:09;0.80;90.00
4406;DHT22;2216;53.806;11.598;2024-03-08T06:27:37;0.80;90.20
4406;DHT22;2216;53.806;11.598;2024-03-08T06:30:03;0.80;90.00
4406;DHT22;2216;53.806;11.598;2024-03-08T06:32:30;0.90;90.00
4406;DHT22;2216;53.806;11.598;2024-03-08T06:34:58;0.80;90.00
4406;DHT22;2216;53.806;11.598;2024-03-08T06:37:24;0.90;90.10
4406;DHT22;2216;53.806;11.598;2024-03-08T06:39:49;0.90;90.20
4406;DHT22;2216;53.806;11.598;2024-03-08T06:42:17;0.90;90.10
4406;DHT22;2216;53.806;11.598;2024-03-08T06:44:42;0.90;90.00
4406;DHT22;2216;53.806;11.598;2024-03-08T06:47:15;0.90;90.00
4406;DHT22;2216;53.806;11.598;2024-03-08T06:49:42;0.90;90.10
4406;DHT22;2216;53.806;11.598;2024-03-08T06:52:09;0.90;90.20
4406;DHT22;2216;53.806;11.598;2024-03-08T06:54:36;1.00;90.20
4406;DHT22;2216;53.806;11.598;2024-03-08T06:57:05;1.00;90.10
4406;DHT22;2216;53.806;11.598;2024-03-08T06:59:31;1.00;90.10
4406;DHT22;2216;53.806;11.598;2024-03-08T07:01:57;1.00;90.10
4406;DHT22;2216;53.806;11.598;2024-03-08T07:04:25;1.00;90.10
4406;DHT22;2216;53.806;11.598;2024-03-08T07:06:55;1.00;90.10
4406;DHT22;2216;53.806;11.598;2024-03-08T07:09:21;1.00;90.10
4406;DHT22;2216;53.806;11.598;2024-03-08T07:11:47;1.00;90.10
4406;DHT22;2216;53.806;11.598;2024-03-08T07:14:12;1.00;90.20
4406;DHT22;2216;53.806;11.598;2024-03-08T07:16:40;1.00;90.20
4406;DHT22;2216;53.806;11.598;2024-03-08T07:19:07;1.10;90.30
4406;DHT22;2216;53.806;11.598;2024-03-08T07:21:32;1.10;90.30
4406;DHT22;2216;53.806;11.598;2024-03-08T07:23:58;1.00;90.30
4406;DHT22;2216;53.806;11.598;2024-03-08T07:26:24;1.20;90.60
4406;DHT22;2216;53.806;11.598;2024-03-08T07:28:49;1.10;90.60
4406;DHT22;2216;53.806;11.598;2024-03-08T07:31:15;1.10;90.30
4406;DHT22;2216;53.806;11.598;2024-03-08T07:33:56;1.10;90.20
4406;DHT22;2216;53.806;11.598;2024-03-08T07:36:24;1.20;90.30
4406;DHT22;2216;53.806;11.598;2024-03-08T07:38:49;1.20;90.40
4406;DHT22;2216;53.806;11.598;2024-03-08T07:41:15;1.20;90.30
4406;DHT22;2216;53.806;11.598;2024-03-08T07:43:42;1.30;90.40
4406;DHT22;2216;53.806;11.598;2024-03-08T07:46:09;1.10;90.70
4406;DHT22;2216;53.806;11.598;2024-03-08T07:48:36;1.30;90.60
4406;DHT22;2216;53.806;11.598;2024-03-08T07:51:05;1.30;90.60
4406;DHT22;2216;53.806;11.598;2024-03-08T07:53:31;1.40;90.50
4406;DHT22;2216;53.806;11.598;2024-03-08T07:55:57;1.40;90.50
4406;DHT22;2216;53.806;11.598;2024-03-08T07:58:23;1.40;90.50
4406;DHT22;2216;53.806;11.598;2024-03-08T08:00:49;1.50;90.50
4406;DHT22;2216;53.806;11.598;2024-03-08T08:03:15;1.50;90.50
4406;DHT22;2216;53.806;11.598;2024-03-08T08:05:41;1.70;90.80
4406;DHT22;2216;53.806;11.598;2024-03-08T08:08:08;1.60;90.60
4406;DHT22;2216;53.806;11.598;2024-03-08T08:10:36;1.60;90.60
4406;DHT22;2216;53.806;11.598;2024-03-08T08:13:02;1.60;90.70
4406;DHT22;2216;53.806;11.598;2024-03-08T08:15:30;1.70;90.80
4406;DHT22;2216;53.806;11.598;2024-03-08T08:17:55;1.70;90.90
4406;DHT22;2216;53.806;11.598;2024-03-08T08:20:21;1.80;91.00
4406;DHT22;2216;53.806;11.598;2024-03-08T08:22:48;1.80;91.00
4406;DHT22;2216;53.806;11.598;2024-03-08T08:25:14;1.80;90.80
4406;DHT22;2216;53.806;11.598;2024-03-08T08:27:41;1.90;90.90
4406;DHT22;2216;53.806;11.598;2024-03-08T08:30:10;1.80;90.70
4406;DHT22;2216;53.806;11.598;2024-03-08T08:32:37;1.90;91.00
4406;DHT22;2216;53.806;11.598;2024-03-08T08:35:07;2.00;91.00
4406;DHT22;2216;53.806;11.598;2024-03-08T08:37:39;2.00;91.00
4406;DHT22;2216;53.806;11.598;2024-03-08T08:40:05;2.10;91.10
4406;DHT22;2216;53.806;11.598;2024-03-08T08:42:34;2.10;91.00
4406;DHT22;2216;53.806;11.598;2024-03-08T08:45:00;2.10;91.00
4406;DHT22;2216;53.806;11.598;2024-03-08T08:47:29;2.20;91.10
4406;DHT22;2216;53.806;11.598;2024-03-08T08:49:55;2.30;91.30
4406;DHT22;2216;53.806;11.598;2024-03-08T08:52:21;2.50;91.40
4406;DHT22;2216;53.806;11.598;2024-03-08T08:54:46;2.40;91.20
4406;DHT22;2216;53.806;11.598;2024-03-08T08:57:12;2.40;91.10
4406;DHT22;2216;53.806;11.598;2024-03-08T08:59:39;2.40;91.20
4406;DHT22;2216;53.806;11.598;2024-03-08T09:02:06;2.50;91.20
4406;DHT22;2216;53.806;11.598;2024-03-08T09:04:32;2.60;91.20
4406;DHT22;2216;53.806;11.598;2024-03-08T09:06:58;2.60;91.40
4406;DHT22;2216;53.806;11.598;2024-03-08T09:09:24;2.60;91.20
4406;DHT22;2216;53.806;11.598;2024-03-08T09:11:51;2.70;91.10
4406;DHT22;2216;53.806;11.598;2024-03-08T09:14:16;2.70;91.10
4406;DHT22;2216;53.806;11.598;2024-03-08T09:16:42;2.70;91.30
4406;DHT22;2216;53.806;11.598;2024-03-08T09:19:08;2.80;91.20
4406;DHT22;2216;53.806;11.598;2024-03-08T09:21:36;2.80;91.10
4406;DHT22;2216;53.806;11.598;2024-03-08T09:24:02;2.90;91.30
4406;DHT22;2216;53.806;11.598;2024-03-08T09:26:28;3.00;91.40
4406;DHT22;2216;53.806;11.598;2024-03-08T09:28:54;3.10;91.50
4406;DHT22;2216;53.806;11.598;2024-03-08T09:31:22;3.00;91.40
4406;DHT22;2216;53.806;11.598;2024-03-08T09:33:48;3.20;91.40
4406;DHT22;2216;53.806;11.598;2024-03-08T09:36:14;3.30;91.50
4406;DHT22;2216;53.806;11.598;2024-03-08T09:38:40;3.40;91.30
4406;DHT22;2216;53.806;11.598;2024-03-08T09:41:06;3.50;91.30
4406;DHT22;2216;53.806;11.598;2024-03-08T09:43:32;3.60;91.50
4406;DHT22;2216;53.806;11.598;2024-03-08T09:45:58;3.60;91.50
4406;DHT22;2216;53.806;11.598;2024-03-08T09:48:25;3.70;91.60
4406;DHT22;2216;53.806;11.598;2024-03-08T09:50:51;3.90;91.60
4406;DHT22;2216;53.806;11.598;2024-03-08T09:53:17;4.00;91.70
4406;DHT22;2216;53.806;11.598;2024-03-08T09:55:44;4.20;91.70
4406;DHT22;2216;53.806;11.598;2024-03-08T09:58:15;4.20;91.50
4406;DHT22;2216;53.806;11.598;2024-03-08T10:00:47;4.30;91.40
4406;DHT22;2216;53.806;11.598;2024-03-08T10:03:13;4.40;91.40
4406;DHT22;2216;53.806;11.598;2024-03-08T10:05:43;4.50;91.40
4406;DHT22;2216;53.806;11.598;2024-03-08T10:08:10;4.60;91.40
4406;DHT22;2216;53.806;11.598;2024-03-08T10:10:36;4.60;91.40
4406;DHT22;2216;53.806;11.598;2024-03-08T10:13:09;4.70;91.40
4406;DHT22;2216;53.806;11.598;2024-03-08T10:15:39;4.80;91.40
4406;DHT22;2216;53.806;11.598;2024-03-08T10:18:05;4.90;91.30
4406;DHT22;2216;53.806;11.598;2024-03-08T10:20:32;5.00;91.30
4406;DHT22;2216;53.806;11.598;2024-03-08T10:23:05;5.10;91.40
4406;DHT22;2216;53.806;11.598;2024-03-08T10:25:32;5.20;91.40
4406;DHT22;2216;53.806;11.598;2024-03-08T10:27:58;5.30;91.20
4406;DHT22;2216;53.806;11.598;2024-03-08T10:30:24;5.30;91.10
4406;DHT22;2216;53.806;11.598;2024-03-08T10:32:50;5.40;91.10
4406;DHT22;2216;53.806;11.598;2024-03-08T10:35:17;5.50;91.10
4406;DHT22;2216;53.806;11.598;2024-03-08T10:37:50;5.60;91.20
4406;DHT22;2216;53.806;11.598;2024-03-08T10:40:26;5.60;91.20
4406;DHT22;2216;53.806;11.598;2024-03-08T10:43:01;5.90;91.30
4406;DHT22;2216;53.806;11.598;2024-03-08T10:45:38;5.90;91.40
4406;DHT22;2216;53.806;11.598;2024-03-08T10:48:30;6.00;91.30
4406;DHT22;2216;53.806;11.598;2024-03-08T10:51:04;6.20;91.00
4406;DHT22;2216;53.806;11.598;2024-03-08T10:53:30;6.30;90.90
4406;DHT22;2216;53.806;11.598;2024-03-08T10:55:57;6.30;90.50
4406;DHT22;2216;53.806;11.598;2024-03-08T10:58:24;6.40;90.50
4406;DHT22;2216;53.806;11.598;2024-03-08T11:00:55;6.40;90.70
4406;DHT22;2216;53.806;11.598;2024-03-08T11:08:44;6.70;90.70
4406;DHT22;2216;53.806;11.598;2024-03-08T11:11:32;6.80;90.40
4406;DHT22;2216;53.806;11.598;2024-03-08T11:14:01;6.90;90.20
4406;DHT22;2216;53.806;11.598;2024-03-08T11:18:54;7.10;90.30
4406;DHT22;2216;53.806;11.598;2024-03-08T11:21:23;7.20;90.30
4406;DHT22;2216;53.806;11.598;2024-03-08T11:24:06;7.30;90.20
4406;DHT22;2216;53.806;11.598;2024-03-08T11:26:34;7.40;90.10
4406;DHT22;2216;53.806;11.598;2024-03-08T11:34:35;7.70;90.10
4406;DHT22;2216;53.806;11.598;2024-03-08T11:37:14;7.80;90.00
4406;DHT22;2216;53.806;11.598;2024-03-08T11:39:50;7.80;89.80
4406;DHT22;2216;53.806;11.598;2024-03-08T11:42:20;7.90;88.60
4406;DHT22;2216;53.806;11.598;2024-03-08T11:44:47;7.90;88.50
4406;DHT22;2216;53.806;11.598;2024-03-08T11:47:14;7.90;88.10
4406;DHT22;2216;53.806;11.598;2024-03-08T11:49:40;8.00;88.50
4406;DHT22;2216;53.806;11.598;2024-03-08T11:52:17;8.00;89.30
4406;DHT22;2216;53.806;11.598;2024-03-08T11:54:53;8.10;88.30
4406;DHT22;2216;53.806;11.598;2024-03-08T11:57:23;8.20;88.10
4406;DHT22;2216;53.806;11.598;2024-03-08T11:59:52;8.20;88.00
4406;DHT22;2216;53.806;11.598;2024-03-08T12:02:19;8.20;88.20
4406;DHT22;2216;53.806;11.598;2024-03-08T12:04:45;8.30;87.70
4406;DHT22;2216;53.806;11.598;2024-03-08T12:07:13;8.30;87.50
4406;DHT22;2216;53.806;11.598;2024-03-08T12:09:42;8.30;87.80
4406;DHT22;2216;53.806;11.598;2024-03-08T12:12:12;8.40;87.60
4406;DHT22;2216;53.806;11.598;2024-03-08T12:14:38;8.40;87.50
4406;DHT22;2216;53.806;11.598;2024-03-08T12:17:06;8.40;87.40
4406;DHT22;2216;53.806;11.598;2024-03-08T12:19:32;8.50;87.80
4406;DHT22;2216;53.806;11.598;2024-03-08T12:22:07;8.50;87.40
4406;DHT22;2216;53.806;11.598;2024-03-08T12:24:35;8.50;86.30
4406;DHT22;2216;53.806;11.598;2024-03-08T12:27:17;8.60;86.10
4406;DHT22;2216;53.806;11.598;2024-03-08T12:29:44;8.60;86.30
4406;DHT22;2216;53.806;11.598;2024-03-08T12:32:10;8.60;86.10
4406;DHT22;2216;53.806;11.598;2024-03-08T12:34:37;8.60;86.20
4406;DHT22;2216;53.806;11.598;2024-03-08T12:37:03;8.60;86.00
4406;DHT22;2216;53.806;11.598;2024-03-08T12:39:32;8.60;86.40
4406;DHT22;2216;53.806;11.598;2024-03-08T12:41:58;8.70;87.00
4406;DHT22;2216;53.806;11.598;2024-03-08T12:44:25;8.70;86.30
4406;DHT22;2216;53.806;11.598;2024-03-08T12:46:51;8.70;86.20
4406;DHT22;2216;53.806;11.598;2024-03-08T12:49:19;8.70;85.60
4406;DHT22;2216;53.806;11.598;2024-03-08T12:51:48;8.80;85.10
4406;DHT22;2216;53.806;11.598;2024-03-08T12:54:13;8.80;84.90
4406;DHT22;2216;53.806;11.598;2024-03-08T12:56:40;8.80;83.00
4406;DHT22;2216;53.806;11.598;2024-03-08T12:59:07;8.80;84.10
4406;DHT22;2216;53.806;11.598;2024-03-08T13:01:34;8.80;84.70
4406;DHT22;2216;53.806;11.598;2024-03-08T13:04:03;8.80;84.30
4406;DHT22;2216;53.806;11.598;2024-03-08T13:06:32;8.90;84.50
4406;DHT22;2216;53.806;11.598;2024-03-08T13:08:58;8.90;83.60
4406;DHT22;2216;53.806;11.598;2024-03-08T13:11:26;8.90;83.80
4406;DHT22;2216;53.806;11.598;2024-03-08T13:13:52;8.90;84.20
4406;DHT22;2216;53.806;11.598;2024-03-08T13:16:18;8.90;83.90
4406;DHT22;2216;53.806;11.598;2024-03-08T13:18:45;9.00;84.60
4406;DHT22;2216;53.806;11.598;2024-03-08T13:21:14;9.00;84.20
4406;DHT22;2216;53.806;11.598;2024-03-08T13:23:41;9.00;84.80
4406;DHT22;2216;53.806;11.598;2024-03-08T13:26:12;9.00;83.90
4406;DHT22;2216;53.806;11.598;2024-03-08T13:28:48;9.00;84.90
4406;DHT22;2216;53.806;11.598;2024-03-08T13:31:20;9.10;83.60
4406;DHT22;2216;53.806;11.598;2024-03-08T13:33:46;9.10;83.40
4406;DHT22;2216;53.806;11.598;2024-03-08T13:36:13;9.10;84.00
4406;DHT22;2216;53.806;11.598;2024-03-08T13:38:48;9.10;81.90
4406;DHT22;2216;53.806;11.598;2024-03-08T13:41:15;9.10;81.60
4406;DHT22;2216;53.806;11.598;2024-03-08T13:43:42;9.10;81.30
4406;DHT22;2216;53.806;11.598;2024-03-08T13:46:09;9.10;80.50
4406;DHT22;2216;53.806;11.598;2024-03-08T13:48:36;9.10;79.20
4406;DHT22;2216;53.806;11.598;2024-03-08T13:51:04;9.10;80.20
4406;DHT22;2216;53.806;11.598;2024-03-08T13:53:31;9.10;81.80
4406;DHT22;2216;53.806;11.598;2024-03-08T13:55:58;9.10;80.70
4406;DHT22;2216;53.806;11.598;2024-03-08T13:58:24;9.10;81.80
4406;DHT22;2216;53.806;11.598;2024-03-08T14:00:50;9.20;82.20
4406;DHT22;2216;53.806;11.598;2024-03-08T14:03:17;9.20;81.90
4406;DHT22;2216;53.806;11.598;2024-03-08T14:05:43;9.20;82.30
4406;DHT22;2216;53.806;11.598;2024-03-08T14:08:10;9.20;82.20
4406;DHT22;2216;53.806;11.598;2024-03-08T14:10:37;9.20;81.40
4406;DHT22;2216;53.806;11.598;2024-03-08T14:13:04;9.10;79.30
4406;DHT22;2216;53.806;11.598;2024-03-08T14:15:33;9.10;80.80
4406;DHT22;2216;53.806;11.598;2024-03-08T14:18:07;9.10;81.60
4406;DHT22;2216;53.806;11.598;2024-03-08T14:20:32;9.10;81.40
4406;DHT22;2216;53.806;11.598;2024-03-08T14:22:58;9.10;80.50
4406;DHT22;2216;53.806;11.598;2024-03-08T14:25:24;9.00;80.60
4406;DHT22;2216;53.806;11.598;2024-03-08T14:27:51;9.00;80.70
4406;DHT22;2216;53.806;11.598;2024-03-08T14:30:20;9.00;81.40
4406;DHT22;2216;53.806;11.598;2024-03-08T14:33:00;9.00;81.10
4406;DHT22;2216;53.806;11.598;2024-03-08T14:35:26;9.00;80.90
4406;DHT22;2216;53.806;11.598;2024-03-08T14:37:53;9.00;81.10
4406;DHT22;2216;53.806;11.598;2024-03-08T14:40:18;9.00;81.70
4406;DHT22;2216;53.806;11.598;2024-03-08T14:42:48;8.90;80.50
4406;DHT22;2216;53.806;11.598;2024-03-08T14:45:15;8.90;79.10
4406;DHT22;2216;53.806;11.598;2024-03-08T14:47:42;8.90;79.40
4406;DHT22;2216;53.806;11.598;2024-03-08T14:50:08;8.90;80.20
4406;DHT22;2216;53.806;11.598;2024-03-08T14:52:38;8.80;80.10
4406;DHT22;2216;53.806;11.598;2024-03-08T14:55:05;8.80;80.30
4406;DHT22;2216;53.806;11.598;2024-03-08T14:57:32;8.80;80.50
4406;DHT22;2216;53.806;11.598;2024-03-08T14:59:58;8.80;80.60
4406;DHT22;2216;53.806;11.598;2024-03-08T15:02:41;8.80;79.40
4406;DHT22;2216;53.806;11.598;2024-03-08T15:05:07;8.80;79.60
4406;DHT22;2216;53.806;11.598;2024-03-08T15:07:35;8.90;79.50
4406;DHT22;2216;53.806;11.598;2024-03-08T15:10:01;8.90;77.90
4406;DHT22;2216;53.806;11.598;2024-03-08T15:12:26;8.80;78.50
4406;DHT22;2216;53.806;11.598;2024-03-08T15:14:54;8.90;79.00
4406;DHT22;2216;53.806;11.598;2024-03-08T15:17:21;8.90;79.50
4406;DHT22;2216;53.806;11.598;2024-03-08T15:19:49;8.90;78.90
4406;DHT22;2216;53.806;11.598;2024-03-08T15:22:15;9.00;80.10
4406;DHT22;2216;53.806;11.598;2024-03-08T15:24:44;8.90;79.00
4406;DHT22;2216;53.806;11.598;2024-03-08T15:27:10;8.80;77.20
4406;DHT22;2216;53.806;11.598;2024-03-08T15:29:35;8.80;77.10
4406;DHT22;2216;53.806;11.598;2024-03-08T15:32:02;8.80;77.60
4406;DHT22;2216;53.806;11.598;2024-03-08T15:34:29;8.80;77.80
4406;DHT22;2216;53.806;11.598;2024-03-08T15:36:57;8.80;77.50
4406;DHT22;2216;53.806;11.598;2024-03-08T15:39:27;8.80;77.70
4406;DHT22;2216;53.806;11.598;2024-03-08T15:41:53;8.70;78.00
4406;DHT22;2216;53.806;11.598;2024-03-08T15:44:20;8.70;78.30
4406;DHT22;2216;53.806;11.598;2024-03-08T15:46:46;8.70;77.20
4406;DHT22;2216;53.806;11.598;2024-03-08T15:49:12;8.70;76.70
4406;DHT22;2216;53.806;11.598;2024-03-08T15:51:39;8.70;76.20
4406;DHT22;2216;53.806;11.598;2024-03-08T15:54:06;8.60;76.40
4406;DHT22;2216;53.806;11.598;2024-03-08T15:56:33;8.60;77.30
4406;DHT22;2216;53.806;11.598;2024-03-08T15:58:59;8.60;77.20
4406;DHT22;2216;53.806;11.598;2024-03-08T16:01:28;8.60;77.20
4406;DHT22;2216;53.806;11.598;2024-03-08T16:03:56;8.50;77.10
4406;DHT22;2216;53.806;11.598;2024-03-08T16:06:24;8.50;76.90
4406;DHT22;2216;53.806;11.598;2024-03-08T16:08:50;8.50;77.90
4406;DHT22;2216;53.806;11.598;2024-03-08T16:11:17;8.50;77.90
4406;DHT22;2216;53.806;11.598;2024-03-08T16:13:44;8.40;76.40
4406;DHT22;2216;53.806;11.598;2024-03-08T16:16:10;8.40;76.40